createdAt,value
2023-01-09T00:01:25.790Z,40.35
2023-01-09T00:03:54.097Z,39.91
2023-01-09T00:06:22.161Z,40.27
2023-01-09T00:08:50.490Z,40.03
2023-01-09T00:11:18.731Z,39.81
2023-01-09T00:13:47.259Z,40.66
2023-01-09T00:16:15.587Z,39.91
2023-01-09T00:18:45.310Z,40.16
2023-01-09T00:21:13.818Z,39.93
2023-01-09T00:23:42.068Z,40.45
2023-01-09T00:26:11.778Z,39.76
2023-01-09T00:28:40.031Z,40.36
2023-01-09T00:31:08.724Z,40.17
2023-01-09T00:33:38.239Z,39.96
2023-01-09T00:36:08.799Z,39.74
2023-01-09T00:38:37.539Z,40.34
2023-01-09T00:41:05.939Z,39.80
2023-01-09T00:43:36.039Z,40.18
2023-01-09T00:46:05.524Z,40.39
2023-01-09T00:48:33.754Z,40.18
2023-01-09T00:51:01.947Z,40.26
2023-01-09T00:53:32.749Z,39.94
2023-01-09T00:56:02.387Z,39.77
2023-01-09T00:58:30.491Z,40.11
2023-01-09T01:00:58.858Z,40.40
2023-01-09T01:03:27.204Z,39.75
2023-01-09T01:06:12.650Z,39.82
2023-01-09T01:08:42.194Z,40.36
2023-01-09T01:11:11.222Z,40.13
2023-01-09T01:13:39.946Z,39.74
2023-01-09T01:16:08.610Z,40.23
2023-01-09T01:18:36.759Z,40.21
2023-01-09T01:21:07.625Z,40.20
2023-01-09T01:23:35.916Z,40.52
2023-01-09T01:26:08.867Z,40.30
2023-01-09T01:28:37.095Z,39.84
2023-01-09T01:31:05.316Z,39.77
2023-01-09T01:33:35.187Z,39.82
2023-01-09T01:36:04.336Z,40.36
2023-01-09T01:38:32.433Z,39.81
2023-01-09T01:41:00.743Z,40.14
2023-01-09T01:43:30.412Z,40.29
2023-01-09T01:45:58.666Z,40.10
2023-01-09T01:48:28.399Z,40.21
2023-01-09T01:50:58.606Z,40.14
2023-01-09T01:53:28.255Z,40.00
2023-01-09T01:56:01.611Z,40.35
2023-01-09T01:58:31.182Z,40.18
2023-01-09T02:00:59.422Z,40.35
2023-01-09T02:03:28.485Z,40.32
2023-01-09T02:05:56.725Z,39.95
2023-01-09T02:08:24.839Z,39.70
2023-01-09T02:10:53.022Z,39.91
2023-01-09T02:13:21.095Z,40.09
2023-01-09T02:15:58.468Z,40.53
2023-01-09T02:18:54.215Z,40.23
2023-01-09T02:21:26.001Z,40.65
2023-01-09T02:24:26.650Z,40.27
2023-01-09T02:27:08.971Z,40.40
2023-01-09T02:30:10.675Z,40.43
2023-01-09T02:32:44.960Z,39.94
2023-01-09T02:35:20.781Z,40.15
2023-01-09T02:37:53.095Z,40.24
2023-01-09T02:40:23.583Z,39.99
2023-01-09T02:42:51.868Z,40.52
2023-01-09T02:45:21.485Z,40.21
2023-01-09T02:47:49.639Z,40.23
2023-01-09T02:50:18.817Z,40.42
2023-01-09T02:53:10.850Z,40.21
2023-01-09T02:55:52.305Z,39.84
2023-01-09T02:58:25.059Z,40.69
2023-01-09T03:00:58.414Z,40.60
2023-01-09T03:03:28.695Z,40.68
2023-01-09T03:06:00.651Z,39.83
2023-01-09T03:08:32.579Z,40.43
2023-01-09T03:11:01.779Z,40.22
2023-01-09T03:13:32.681Z,39.81
2023-01-09T03:16:03.545Z,40.15
2023-01-09T03:18:31.720Z,39.78
2023-01-09T03:20:59.807Z,40.33
2023-01-09T03:23:28.024Z,39.91
2023-01-09T03:25:56.105Z,40.46
2023-01-09T03:28:27.456Z,39.96
2023-01-09T03:30:55.704Z,40.33
2023-01-09T03:33:25.145Z,40.38
2023-01-09T03:35:53.290Z,39.78
2023-01-09T03:38:21.340Z,39.86
2023-01-09T03:40:49.645Z,39.82
2023-01-09T03:43:17.851Z,40.36
2023-01-09T03:45:46.010Z,39.79
2023-01-09T03:48:14.153Z,40.53
2023-01-09T03:50:45.967Z,40.40
2023-01-09T03:53:14.405Z,40.31
2023-01-09T03:55:45.135Z,40.04
2023-01-09T03:58:13.259Z,39.88
2023-01-09T04:00:41.456Z,40.37
2023-01-09T04:03:09.868Z,39.90
2023-01-09T04:05:38.011Z,40.39
2023-01-09T04:08:07.711Z,39.83
2023-01-09T04:10:35.749Z,40.41
2023-01-09T04:13:04.059Z,39.76
2023-01-09T04:15:32.170Z,39.74
2023-01-09T04:18:00.404Z,39.96
2023-01-09T04:20:28.757Z,40.28
2023-01-09T04:22:57.444Z,39.76
2023-01-09T04:25:27.096Z,40.40
2023-01-09T04:27:55.239Z,39.58
2023-01-09T04:30:23.419Z,40.11
2023-01-09T04:32:52.078Z,40.26
2023-01-09T04:35:20.674Z,39.87
2023-01-09T04:37:48.897Z,40.44
2023-01-09T04:40:19.890Z,40.29
2023-01-09T04:42:49.519Z,39.87
2023-01-09T04:45:17.629Z,40.15
2023-01-09T04:47:46.012Z,40.45
2023-01-09T04:50:14.188Z,40.06
2023-01-09T04:52:42.445Z,40.26
2023-01-09T04:55:11.048Z,40.19
2023-01-09T04:57:39.274Z,39.95
2023-01-09T05:00:12.389Z,40.57
2023-01-09T05:02:40.813Z,39.78
2023-01-09T05:05:11.497Z,39.88
2023-01-09T05:07:40.172Z,40.20
2023-01-09T05:10:09.239Z,40.16
2023-01-09T05:12:37.676Z,39.97
2023-01-09T05:15:07.055Z,39.88
2023-01-09T05:17:36.674Z,40.53
2023-01-09T05:20:05.215Z,39.83
2023-01-09T05:22:33.467Z,40.63
2023-01-09T05:25:01.595Z,40.47
2023-01-09T05:27:30.511Z,40.03
2023-01-09T05:29:58.636Z,40.36
2023-01-09T05:32:26.896Z,40.21
2023-01-09T05:34:56.383Z,40.30
2023-01-09T05:37:24.547Z,40.39
2023-01-09T05:39:52.657Z,40.42
2023-01-09T05:42:20.791Z,40.41
2023-01-09T05:44:48.973Z,40.15
2023-01-09T05:47:17.375Z,39.75
2023-01-09T05:49:45.427Z,40.51
2023-01-09T05:52:14.971Z,40.29
2023-01-09T05:54:43.031Z,40.18
2023-01-09T05:57:11.171Z,39.81
2023-01-09T05:59:39.320Z,40.10
2023-01-09T06:02:07.522Z,40.41
2023-01-09T06:04:35.649Z,39.75
2023-01-09T06:07:03.830Z,40.23
2023-01-09T06:09:33.387Z,40.36
2023-01-09T06:12:01.537Z,40.20
2023-01-09T06:14:29.857Z,40.23
2023-01-09T06:16:58.034Z,39.55
2023-01-09T06:19:26.108Z,39.78
2023-01-09T06:21:54.291Z,40.36
2023-01-09T06:24:22.490Z,40.05
2023-01-09T06:26:51.935Z,40.11
2023-01-09T06:29:20.279Z,39.96
2023-01-09T06:31:48.355Z,39.63
2023-01-09T06:34:16.614Z,39.97
2023-01-09T06:36:44.726Z,39.63
2023-01-09T06:39:14.187Z,39.96
2023-01-09T06:41:42.365Z,39.77
2023-01-09T06:44:11.922Z,39.62
2023-01-09T06:46:40.176Z,39.96
2023-01-09T06:49:10.046Z,39.89
2023-01-09T06:51:38.463Z,40.13
2023-01-09T06:54:06.603Z,39.48
2023-01-09T06:56:34.857Z,39.63
2023-01-09T06:59:02.895Z,39.78
2023-01-09T07:01:32.500Z,39.93
2023-01-09T07:04:00.756Z,39.72
2023-01-09T07:06:29.510Z,39.46
2023-01-09T07:08:57.745Z,39.70
2023-01-09T07:11:25.842Z,39.77
2023-01-09T07:13:54.102Z,39.86
2023-01-09T07:16:22.437Z,40.05
2023-01-09T07:18:52.582Z,39.75
2023-01-09T07:21:20.840Z,39.56
2023-01-09T07:23:48.952Z,40.01
2023-01-09T07:26:17.163Z,40.20
2023-01-09T07:28:45.368Z,39.93
2023-01-09T07:31:13.720Z,39.58
2023-01-09T07:33:41.918Z,39.49
2023-01-09T07:36:12.583Z,39.35
2023-01-09T07:38:40.918Z,39.91
2023-01-09T07:41:09.235Z,39.84
2023-01-09T07:43:37.578Z,39.52
2023-01-09T07:46:06.596Z,39.32
2023-01-09T07:48:34.967Z,39.72
2023-01-09T07:51:03.087Z,39.13
2023-01-09T07:53:32.716Z,39.63
2023-01-09T07:56:00.776Z,39.30
2023-01-09T07:58:28.960Z,39.19
2023-01-09T08:00:57.102Z,39.71
2023-01-09T08:03:26.893Z,39.85
2023-01-09T08:05:55.023Z,39.36
2023-01-09T08:08:23.592Z,39.53
2023-01-09T08:10:53.155Z,39.20
2023-01-09T08:13:21.293Z,39.89
2023-01-09T08:15:49.480Z,39.19
2023-01-09T08:18:17.696Z,39.34
2023-01-09T08:20:45.972Z,39.24
2023-01-09T08:23:14.046Z,39.37
2023-01-09T08:25:42.127Z,39.90
2023-01-09T08:28:11.703Z,39.14
2023-01-09T08:30:39.838Z,39.29
2023-01-09T08:33:07.983Z,39.00
2023-01-09T08:35:37.215Z,39.10
2023-01-09T08:38:05.391Z,38.70
2023-01-09T08:40:33.565Z,38.69
2023-01-09T08:43:18.888Z,39.26
2023-01-09T08:46:05.903Z,38.86
2023-01-09T08:48:34.265Z,39.12
2023-01-09T08:51:02.759Z,38.89
2023-01-09T08:53:31.658Z,39.23
2023-01-09T08:56:00.215Z,39.16
2023-01-09T08:58:28.394Z,38.86
2023-01-09T09:00:58.998Z,39.23
2023-01-09T09:03:27.262Z,38.44
2023-01-09T09:05:55.435Z,39.09
2023-01-09T09:08:23.607Z,39.01
2023-01-09T09:10:51.897Z,39.15
2023-01-09T09:13:20.164Z,38.77
2023-01-09T09:15:48.253Z,38.71
2023-01-09T09:18:17.833Z,38.72
2023-01-09T09:20:46.044Z,38.30
2023-01-09T09:23:14.209Z,39.06
2023-01-09T09:25:42.421Z,38.37
2023-01-09T09:28:11.015Z,38.93
2023-01-09T09:30:39.622Z,38.49
2023-01-09T09:33:07.899Z,38.96
2023-01-09T09:35:38.059Z,38.72
2023-01-09T09:38:06.423Z,38.69
2023-01-09T09:41:04.849Z,38.78
2023-01-09T09:44:14.096Z,38.32
2023-01-09T09:46:43.811Z,39.06
2023-01-09T09:49:14.423Z,38.29
2023-01-09T09:52:09.825Z,38.89
2023-01-09T09:54:41.191Z,38.44
2023-01-09T09:57:11.988Z,38.57
2023-01-09T09:59:40.220Z,38.41
2023-01-09T10:02:16.178Z,38.41
2023-01-09T10:04:46.740Z,38.70
2023-01-09T10:07:18.258Z,38.90
2023-01-09T10:09:48.504Z,38.57
2023-01-09T10:12:27.154Z,38.58
2023-01-09T10:14:55.556Z,38.33
2023-01-09T10:17:30.934Z,38.55
2023-01-09T10:20:25.890Z,38.94
2023-01-09T10:22:58.441Z,38.85
2023-01-09T10:25:29.340Z,38.94
2023-01-09T10:28:03.515Z,38.28
2023-01-09T10:30:36.403Z,38.28
2023-01-09T10:33:10.883Z,38.87
2023-01-09T10:35:50.342Z,38.46
2023-01-09T10:38:22.706Z,38.12
2023-01-09T10:40:52.600Z,38.28
2023-01-09T10:43:26.635Z,38.64
2023-01-09T10:45:55.397Z,38.44
2023-01-09T10:48:25.810Z,38.80
2023-01-09T10:50:54.131Z,38.17
2023-01-09T10:53:24.688Z,38.24
2023-01-09T10:55:54.332Z,38.27
2023-01-09T10:58:23.309Z,38.76
2023-01-09T11:00:51.916Z,38.49
2023-01-09T11:03:21.104Z,38.38
2023-01-09T11:05:51.837Z,38.76
2023-01-09T11:08:25.669Z,38.69
2023-01-09T11:10:55.000Z,38.35
2023-01-09T11:13:24.350Z,38.79
2023-01-09T11:16:16.320Z,38.85
2023-01-09T11:18:49.956Z,38.63
2023-01-09T11:21:33.610Z,38.83
2023-01-09T11:24:29.591Z,39.15
2023-01-09T11:27:23.756Z,39.61
2023-01-09T11:30:16.938Z,39.49
2023-01-09T11:32:46.134Z,39.08
2023-01-09T11:35:20.931Z,39.04
2023-01-09T11:37:50.135Z,39.47
2023-01-09T11:40:21.673Z,39.28
2023-01-09T11:43:07.244Z,39.07
2023-01-09T11:45:35.976Z,39.46
2023-01-09T11:48:04.666Z,39.64
2023-01-09T11:50:33.043Z,39.78
2023-01-09T11:53:14.355Z,39.22
2023-01-09T11:55:44.519Z,39.47
2023-01-09T11:58:14.104Z,39.47
2023-01-09T12:00:48.029Z,39.60
2023-01-09T12:03:20.046Z,39.82
2023-01-09T12:05:51.754Z,39.26
2023-01-09T12:08:25.615Z,39.67
2023-01-09T12:11:13.140Z,39.81
2023-01-09T12:13:51.078Z,39.51
2023-01-09T12:16:24.558Z,39.26
2023-01-09T12:19:05.673Z,39.29
2023-01-09T12:21:37.809Z,39.71
2023-01-09T12:24:40.686Z,39.99
2023-01-09T12:27:17.554Z,40.00
2023-01-09T12:30:06.238Z,39.09
2023-01-09T12:32:41.369Z,39.31
2023-01-09T12:35:18.725Z,39.04
2023-01-09T12:38:17.827Z,39.41
2023-01-09T12:40:57.051Z,39.28
2023-01-09T12:43:30.628Z,39.34
2023-01-09T12:46:04.854Z,39.43
2023-01-09T12:48:42.409Z,39.63
2023-01-09T12:51:38.629Z,39.77
2023-01-09T12:54:09.618Z,39.45
2023-01-09T12:56:39.183Z,39.09
2023-01-09T12:59:16.625Z,39.33
2023-01-09T13:01:46.561Z,39.07
2023-01-09T13:04:18.460Z,39.65
2023-01-09T13:06:49.193Z,39.16
2023-01-09T13:09:23.182Z,39.66
2023-01-09T13:11:54.795Z,39.40
2023-01-09T13:14:28.742Z,39.73
2023-01-09T13:16:56.981Z,39.54
2023-01-09T13:19:26.532Z,39.16
2023-01-09T13:21:54.792Z,39.90
2023-01-09T13:24:25.951Z,39.67
2023-01-09T13:26:55.461Z,39.62
2023-01-09T13:29:26.541Z,39.93
2023-01-09T13:32:05.795Z,39.59
2023-01-09T13:34:34.914Z,39.77
2023-01-09T13:37:03.101Z,39.96
2023-01-09T13:39:32.345Z,39.65
2023-01-09T13:42:19.044Z,39.42
2023-01-09T13:44:49.341Z,39.87
2023-01-09T13:47:19.853Z,39.60
2023-01-09T13:50:29.833Z,39.87
2023-01-09T13:52:58.229Z,39.96
2023-01-09T13:55:36.190Z,40.12
2023-01-09T13:58:22.868Z,39.60
2023-01-09T14:01:00.366Z,39.39
2023-01-09T14:03:33.553Z,39.92
2023-01-09T14:06:21.540Z,39.39
2023-01-09T14:08:50.889Z,39.82
2023-01-09T14:11:22.830Z,40.08
2023-01-09T14:14:07.656Z,40.04
2023-01-09T14:16:40.145Z,40.13
2023-01-09T14:19:27.088Z,40.02
2023-01-09T14:21:56.322Z,40.32
2023-01-09T14:24:26.695Z,39.75
2023-01-09T14:26:57.279Z,40.04
2023-01-09T14:29:46.095Z,40.06
2023-01-09T14:32:48.581Z,40.58
2023-01-09T14:35:28.735Z,40.65
2023-01-09T14:38:03.226Z,40.45
2023-01-09T14:40:31.349Z,40.16
2023-01-09T14:43:02.397Z,40.46
2023-01-09T14:45:31.732Z,40.72
2023-01-09T14:48:02.871Z,40.42
2023-01-09T14:50:34.110Z,40.20
2023-01-09T14:53:05.675Z,40.83
2023-01-09T14:55:37.389Z,40.47
2023-01-09T14:58:12.689Z,40.25
2023-01-09T15:00:48.757Z,40.56
2023-01-09T15:03:18.528Z,40.91
2023-01-09T15:05:46.820Z,40.85
2023-01-09T15:08:16.906Z,40.06
2023-01-09T15:10:45.259Z,40.13
2023-01-09T15:13:15.373Z,40.45
2023-01-09T15:15:46.104Z,40.10
2023-01-09T15:18:22.352Z,40.46
2023-01-09T15:20:55.137Z,40.11
2023-01-09T15:23:23.956Z,40.04
2023-01-09T15:25:52.036Z,40.16
2023-01-09T15:28:32.280Z,40.40
2023-01-09T15:31:04.218Z,40.25
2023-01-09T15:33:32.470Z,40.67
2023-01-09T15:36:02.695Z,39.86
2023-01-09T15:38:32.189Z,40.30
2023-01-09T15:41:01.283Z,39.77
2023-01-09T15:43:44.235Z,40.52
2023-01-09T15:46:12.520Z,40.43
2023-01-09T15:48:40.601Z,39.84
2023-01-09T15:51:10.495Z,39.67
2023-01-09T15:53:38.610Z,40.36
2023-01-09T15:56:09.033Z,39.86
2023-01-09T15:58:37.763Z,39.71
2023-01-09T16:01:08.371Z,39.92
2023-01-09T16:03:37.604Z,40.16
2023-01-09T16:06:08.757Z,39.51
2023-01-09T16:08:38.163Z,39.76
2023-01-09T16:11:07.543Z,40.07
2023-01-09T16:13:40.520Z,39.86
2023-01-09T16:16:10.280Z,40.10
2023-01-09T16:18:38.766Z,39.69
2023-01-09T16:21:31.362Z,39.98
2023-01-09T16:24:00.827Z,39.92
2023-01-09T16:26:29.307Z,40.08
2023-01-09T16:28:57.568Z,39.75
2023-01-09T16:31:29.158Z,40.07
2023-01-09T16:33:59.875Z,39.99
2023-01-09T16:36:28.773Z,39.59
2023-01-09T16:38:57.190Z,40.05
2023-01-09T16:41:42.779Z,39.29
2023-01-09T16:44:11.031Z,39.21
2023-01-09T16:46:43.339Z,39.66
2023-01-09T16:49:22.077Z,39.65
2023-01-09T16:51:50.347Z,39.27
2023-01-09T16:54:18.481Z,39.52
2023-01-09T16:56:48.490Z,39.43
2023-01-09T16:59:17.129Z,39.75
2023-01-09T17:01:46.579Z,39.00
2023-01-09T17:04:15.379Z,39.02
2023-01-09T17:06:43.780Z,39.00
2023-01-09T17:09:12.864Z,39.65
2023-01-09T17:11:41.148Z,39.11
2023-01-09T17:14:09.335Z,39.39
2023-01-09T17:16:37.525Z,39.51
2023-01-09T17:19:07.167Z,39.33
2023-01-09T17:21:35.268Z,39.04
2023-01-09T17:24:20.882Z,39.48
2023-01-09T17:27:07.932Z,38.78
2023-01-09T17:29:36.166Z,38.88
2023-01-09T17:32:04.373Z,39.60
2023-01-09T17:34:34.390Z,39.10
2023-01-09T17:37:04.364Z,39.54
2023-01-09T17:39:32.849Z,39.37
2023-01-09T17:42:02.001Z,38.97
2023-01-09T17:44:30.175Z,39.40
2023-01-09T17:46:58.309Z,38.82
2023-01-09T17:49:27.310Z,38.89
2023-01-09T17:51:56.803Z,39.37
2023-01-09T17:54:24.934Z,38.98
2023-01-09T17:56:54.194Z,39.10
2023-01-09T17:59:22.363Z,38.78
2023-01-09T18:01:50.465Z,39.41
2023-01-09T18:04:18.602Z,38.83
2023-01-09T18:06:48.292Z,38.86
2023-01-09T18:09:18.256Z,38.75
2023-01-09T18:11:47.685Z,39.17
2023-01-09T18:14:17.593Z,39.73
2023-01-09T18:16:45.807Z,39.72
2023-01-09T18:19:13.931Z,39.87
2023-01-09T18:21:42.100Z,40.00
2023-01-09T18:24:10.387Z,39.95
2023-01-09T18:26:39.975Z,39.66
2023-01-09T18:29:09.407Z,40.63
2023-01-09T18:31:37.645Z,40.81
2023-01-09T18:34:07.501Z,41.10
2023-01-09T18:36:35.714Z,40.83
2023-01-09T18:39:04.971Z,41.27
2023-01-09T18:41:33.197Z,41.50
2023-01-09T18:44:03.054Z,41.37
2023-01-09T18:46:32.407Z,41.88
2023-01-09T18:49:01.344Z,42.04
2023-01-09T18:51:29.708Z,42.61
2023-01-09T18:53:58.721Z,42.28
2023-01-09T18:56:27.269Z,42.68
2023-01-09T18:58:55.557Z,42.57
2023-01-09T19:01:25.167Z,42.75
2023-01-09T19:03:53.460Z,43.07
2023-01-09T19:06:21.648Z,42.53
2023-01-09T19:08:50.041Z,42.81
2023-01-09T19:11:18.143Z,43.03
2023-01-09T19:13:46.291Z,42.53
2023-01-09T19:16:14.732Z,42.40
2023-01-09T19:18:44.646Z,42.98
2023-01-09T19:21:14.109Z,42.87
2023-01-09T19:23:42.771Z,42.42
2023-01-09T19:26:16.665Z,42.21
2023-01-09T19:28:46.731Z,42.40
2023-01-09T19:31:15.165Z,42.39
2023-01-09T19:33:44.661Z,42.56
2023-01-09T19:36:12.931Z,42.71
2023-01-09T19:38:41.192Z,42.52
2023-01-09T19:41:13.152Z,42.63
2023-01-09T19:43:41.421Z,42.45
2023-01-09T19:46:09.984Z,42.44
2023-01-09T19:48:38.208Z,42.12
2023-01-09T19:51:08.949Z,41.86
2023-01-09T19:53:37.279Z,41.62
2023-01-09T19:56:12.369Z,42.37
2023-01-09T19:58:40.636Z,42.16
2023-01-09T20:01:10.370Z,41.97
2023-01-09T20:03:38.712Z,41.62
2023-01-09T20:06:10.061Z,42.35
2023-01-09T20:08:38.226Z,42.19
2023-01-09T20:11:06.715Z,41.75
2023-01-09T20:13:35.002Z,41.71
2023-01-09T20:16:03.669Z,41.80
2023-01-09T20:18:31.970Z,41.77
2023-01-09T20:21:00.139Z,41.93
2023-01-09T20:23:32.391Z,41.29
2023-01-09T20:26:00.894Z,41.59
2023-01-09T20:28:29.143Z,41.30
2023-01-09T20:30:57.309Z,41.19
2023-01-09T20:33:25.598Z,41.42
2023-01-09T20:35:53.819Z,41.50
2023-01-09T20:38:23.527Z,41.29
2023-01-09T20:40:57.309Z,41.90
2023-01-09T20:43:26.522Z,41.45
2023-01-09T20:45:54.819Z,40.99
2023-01-09T20:48:23.000Z,41.49
2023-01-09T20:50:51.148Z,41.08
2023-01-09T20:53:19.445Z,41.50
2023-01-09T20:55:47.582Z,40.99
2023-01-09T20:58:17.328Z,41.27
2023-01-09T21:00:45.473Z,41.16
2023-01-09T21:03:16.741Z,41.12
2023-01-09T21:05:44.887Z,41.09
2023-01-09T21:08:13.009Z,41.44
2023-01-09T21:10:41.191Z,41.16
2023-01-09T21:13:09.281Z,40.73
2023-01-09T21:15:39.979Z,40.90
2023-01-09T21:18:08.102Z,41.01
2023-01-09T21:20:36.202Z,41.08
2023-01-09T21:23:04.368Z,41.15
2023-01-09T21:25:32.436Z,41.04
2023-01-09T21:28:00.644Z,41.28
2023-01-09T21:30:28.723Z,40.78
2023-01-09T21:32:58.280Z,41.07
2023-01-09T21:35:26.471Z,41.03
2023-01-09T21:37:54.645Z,40.66
2023-01-09T21:40:23.100Z,41.24
2023-01-09T21:43:08.605Z,41.08
2023-01-09T21:45:56.062Z,41.20
2023-01-09T21:48:25.728Z,41.00
2023-01-09T21:50:53.935Z,40.99
2023-01-09T21:53:22.023Z,40.52
2023-01-09T21:55:50.143Z,41.23
2023-01-09T21:58:18.240Z,41.09
2023-01-09T22:00:46.379Z,41.26
2023-01-09T22:03:17.340Z,40.77
2023-01-09T22:05:46.894Z,41.29
2023-01-09T22:08:15.004Z,41.04
2023-01-09T22:10:43.053Z,40.70
2023-01-09T22:13:17.918Z,41.09
2023-01-09T22:15:47.517Z,40.74
2023-01-09T22:18:15.658Z,40.52
2023-01-09T22:20:43.780Z,40.50
2023-01-09T22:23:13.259Z,40.45
2023-01-09T22:25:42.061Z,40.40
2023-01-09T22:28:11.204Z,40.22
2023-01-09T22:30:40.789Z,40.76
2023-01-09T22:33:10.795Z,40.83
2023-01-09T22:35:38.916Z,40.46
2023-01-09T22:38:07.000Z,40.64
2023-01-09T22:40:37.539Z,40.53
2023-01-09T22:43:06.058Z,40.61
2023-01-09T22:45:34.813Z,40.26
2023-01-09T22:48:02.942Z,40.68
2023-01-09T22:50:31.094Z,41.00
2023-01-09T22:52:59.204Z,40.85
2023-01-09T22:55:27.407Z,40.82
2023-01-09T22:57:56.967Z,41.04
2023-01-09T23:00:25.284Z,41.07
2023-01-09T23:02:53.515Z,40.68
2023-01-09T23:05:21.791Z,41.15
2023-01-09T23:07:49.856Z,40.72
2023-01-09T23:10:18.123Z,41.17
2023-01-09T23:12:48.542Z,40.85
2023-01-09T23:15:18.306Z,40.60
2023-01-09T23:17:46.533Z,40.53
2023-01-09T23:20:14.671Z,41.03
2023-01-09T23:22:42.876Z,40.69
2023-01-09T23:25:14.356Z,40.85
2023-01-09T23:27:42.651Z,41.23
2023-01-09T23:30:12.665Z,41.13
2023-01-09T23:32:42.169Z,40.52
2023-01-09T23:35:10.658Z,41.03
2023-01-09T23:37:38.801Z,40.96
2023-01-09T23:40:07.709Z,40.68
2023-01-09T23:42:53.312Z,41.35
2023-01-09T23:45:22.938Z,40.76
2023-01-09T23:47:52.608Z,41.46
2023-01-09T23:50:21.060Z,40.72
2023-01-09T23:52:49.114Z,41.42
2023-01-09T23:55:17.437Z,40.98
2023-01-09T23:57:45.492Z,40.87
